createdAt,value
2019-06-15T00:00:12.753Z,73.66
2019-06-15T00:02:42.198Z,73.61
2019-06-15T00:05:11.736Z,73.42
2019-06-15T00:07:41.197Z,73.14
2019-06-15T00:10:10.963Z,72.61
2019-06-15T00:12:40.411Z,72.44
2019-06-15T00:15:09.915Z,72.26
2019-06-15T00:17:39.375Z,72.04
2019-06-15T00:20:09.885Z,71.96
2019-06-15T00:22:39.340Z,72.00
2019-06-15T00:25:09.133Z,72.14
2019-06-15T00:27:38.593Z,71.92
2019-06-15T00:30:10.742Z,71.86
2019-06-15T00:32:40.209Z,72.03
2019-06-15T00:35:10.217Z,72.37
2019-06-15T00:37:39.650Z,72.62
2019-06-15T00:40:09.922Z,73.54
2019-06-15T00:42:39.434Z,74.28
2019-06-15T00:45:09.142Z,74.67
2019-06-15T00:47:38.646Z,74.71
2019-06-15T00:50:08.723Z,74.55
2019-06-15T00:52:38.185Z,74.36
2019-06-15T00:55:08.465Z,74.10
2019-06-15T00:57:38.600Z,73.84
2019-06-15T01:00:09.138Z,75.41
2019-06-15T01:02:38.748Z,75.57
2019-06-15T01:05:08.413Z,75.42
2019-06-15T01:07:37.852Z,75.00
2019-06-15T01:10:08.827Z,75.17
2019-06-15T01:12:38.426Z,75.14
2019-06-15T01:15:08.475Z,75.09
2019-06-15T01:22:37.773Z,74.88
2019-06-15T01:25:10.632Z,75.19
2019-06-15T01:27:40.966Z,75.27
2019-06-15T01:30:11.776Z,75.32
2019-06-15T01:32:41.311Z,75.74
2019-06-15T01:35:11.489Z,75.47
2019-06-15T01:37:40.943Z,75.48
2019-06-15T01:40:11.100Z,75.25
2019-06-15T01:42:40.581Z,75.04
2019-06-15T01:45:10.180Z,74.87
2019-06-15T01:47:39.635Z,74.52
2019-06-15T01:50:10.222Z,74.42
2019-06-15T01:52:39.759Z,74.36
2019-06-15T01:55:20.418Z,74.26
2019-06-15T01:57:40.685Z,74.17
2019-06-15T02:00:19.037Z,73.99
2019-06-15T02:02:48.513Z,73.71
2019-06-15T02:05:18.984Z,73.81
2019-06-15T02:07:48.431Z,73.86
2019-06-15T02:10:20.009Z,73.83
2019-06-15T02:12:49.457Z,74.61
2019-06-15T02:15:18.971Z,74.57
2019-06-15T02:17:48.437Z,74.68
2019-06-15T02:20:18.281Z,74.60
2019-06-15T02:22:47.745Z,74.92
2019-06-15T02:25:35.352Z,74.79
2019-06-15T02:27:55.755Z,74.92
2019-06-15T02:30:29.592Z,75.13
2019-06-15T02:32:59.470Z,75.39
2019-06-15T02:35:29.132Z,75.69
2019-06-15T02:37:58.645Z,76.18
2019-06-15T02:40:28.165Z,76.52
2019-06-15T02:45:26.477Z,75.86
2019-06-15T02:47:55.992Z,75.62
2019-06-15T02:50:25.653Z,75.28
2019-06-15T02:52:55.151Z,74.98
2019-06-15T02:55:24.643Z,75.00
2019-06-15T02:57:54.295Z,74.86
2019-06-15T03:00:34.023Z,74.81
2019-06-15T03:03:03.672Z,74.82
2019-06-15T03:05:33.170Z,75.13
2019-06-15T03:08:02.700Z,75.79
2019-06-15T03:10:32.719Z,75.63
2019-06-15T03:13:02.999Z,75.29
2019-06-15T03:15:32.534Z,75.07
2019-06-15T03:18:01.980Z,74.94
2019-06-15T03:20:31.441Z,74.89
2019-06-15T03:23:00.897Z,74.71
2019-06-15T03:25:30.342Z,74.91
2019-06-15T03:27:59.900Z,75.25
2019-06-15T03:30:29.430Z,75.76
2019-06-15T03:32:58.930Z,75.79
2019-06-15T03:35:28.433Z,75.64
2019-06-15T03:37:57.888Z,75.83
2019-06-15T03:40:27.337Z,75.93
2019-06-15T03:42:56.794Z,76.05
2019-06-15T03:45:26.240Z,75.89
2019-06-15T03:47:55.769Z,75.91
2019-06-15T03:50:25.231Z,75.75
2019-06-15T03:52:54.743Z,76.06
2019-06-15T03:55:24.191Z,75.82
2019-06-15T03:57:53.645Z,76.36
2019-06-15T04:00:33.481Z,76.89
2019-06-15T04:03:02.959Z,76.77
2019-06-15T04:05:32.435Z,76.86
2019-06-15T04:08:01.874Z,77.27
2019-06-15T04:10:31.348Z,77.39
2019-06-15T04:13:00.792Z,76.92
2019-06-15T04:15:30.918Z,76.79
2019-06-15T04:18:00.365Z,77.30
2019-06-15T04:20:30.651Z,76.84
2019-06-15T04:23:00.113Z,76.72
2019-06-15T04:25:29.561Z,76.29
2019-06-15T04:27:59.013Z,75.73
2019-06-15T04:30:28.457Z,75.19
2019-06-15T04:32:58.183Z,74.67
2019-06-15T04:35:27.716Z,74.45
2019-06-15T04:37:57.157Z,74.19
2019-06-15T04:40:26.609Z,73.96
2019-06-15T04:42:56.068Z,73.39
2019-06-15T04:45:25.524Z,73.02
2019-06-15T04:47:54.981Z,72.57
2019-06-15T04:50:24.431Z,72.25
2019-06-15T04:52:53.867Z,73.28
2019-06-15T04:55:23.596Z,73.12
2019-06-15T04:57:53.063Z,73.13
2019-06-15T05:00:22.874Z,72.63
2019-06-15T05:02:52.347Z,72.18
2019-06-15T05:05:21.813Z,71.60
2019-06-15T05:07:51.272Z,71.04
2019-06-15T05:10:20.787Z,71.28
2019-06-15T05:12:50.234Z,70.69
2019-06-15T05:15:19.834Z,70.09
2019-06-15T05:17:49.289Z,69.57
2019-06-15T05:20:18.817Z,69.27
2019-06-15T05:22:48.275Z,68.97
2019-06-15T05:25:17.712Z,68.83
2019-06-15T05:27:47.169Z,68.40
2019-06-15T05:30:16.752Z,68.46
2019-06-15T05:32:46.237Z,68.67
2019-06-15T05:35:15.820Z,69.24
2019-06-15T05:37:45.284Z,69.50
2019-06-15T05:40:14.876Z,69.87
2019-06-15T05:42:44.328Z,70.35
2019-06-15T05:45:15.411Z,70.33
2019-06-15T05:47:44.927Z,70.03
2019-06-15T05:50:14.514Z,70.12
2019-06-15T05:52:44.356Z,70.26
2019-06-15T05:55:15.803Z,70.13
2019-06-15T05:57:45.266Z,70.08
2019-06-15T06:00:15.465Z,69.33
2019-06-15T06:02:44.966Z,70.24
2019-06-15T06:05:14.854Z,70.56
2019-06-15T06:07:44.323Z,71.02
2019-06-15T06:10:14.307Z,71.91
2019-06-15T06:12:43.748Z,71.80
2019-06-15T06:15:13.794Z,71.76
2019-06-15T06:17:43.266Z,72.23
2019-06-15T06:20:13.339Z,72.09
2019-06-15T06:22:42.786Z,73.17
2019-06-15T06:25:12.977Z,73.78
2019-06-15T06:27:42.437Z,73.16
2019-06-15T06:30:12.790Z,71.50
2019-06-15T06:32:42.252Z,70.70
2019-06-15T06:35:11.947Z,70.47
2019-06-15T06:37:41.390Z,71.34
2019-06-15T06:40:12.391Z,70.27
2019-06-15T06:42:41.848Z,69.52
2019-06-15T06:45:12.111Z,69.52
2019-06-15T06:47:42.196Z,67.99
2019-06-15T06:50:12.624Z,68.85
2019-06-15T06:52:42.079Z,67.38
2019-06-15T06:55:12.739Z,66.92
2019-06-15T06:57:52.239Z,65.67
2019-06-15T07:00:16.279Z,65.36
2019-06-15T07:02:45.736Z,66.14
2019-06-15T07:05:15.262Z,66.99
2019-06-15T07:07:44.749Z,67.05
2019-06-15T07:10:16.111Z,68.10
2019-06-15T07:12:45.707Z,68.59
2019-06-15T07:15:15.518Z,69.93
2019-06-15T07:17:44.973Z,69.11
2019-06-15T07:20:15.552Z,68.90
2019-06-15T07:22:45.012Z,69.69
2019-06-15T07:25:14.809Z,69.97
2019-06-15T07:27:44.266Z,70.42
2019-06-15T07:30:13.694Z,70.67
2019-06-15T07:32:43.150Z,70.81
2019-06-15T07:35:12.727Z,71.97
2019-06-15T07:37:42.190Z,71.31
2019-06-15T07:40:11.966Z,71.22
2019-06-15T07:42:41.504Z,71.33
2019-06-15T07:45:11.581Z,71.67
2019-06-15T07:47:41.049Z,71.62
2019-06-15T07:50:10.943Z,71.23
2019-06-15T07:52:40.384Z,70.33
2019-06-15T07:55:10.282Z,70.07
2019-06-15T07:57:39.901Z,70.72
2019-06-15T08:00:10.082Z,69.20
2019-06-15T08:02:39.535Z,69.02
2019-06-15T08:05:09.140Z,67.58
2019-06-15T08:07:38.671Z,67.34
2019-06-15T08:10:08.728Z,67.48
2019-06-15T08:12:38.224Z,68.07
2019-06-15T08:15:09.865Z,67.50
2019-06-15T08:17:39.432Z,68.50
2019-06-15T08:20:12.924Z,68.24
2019-06-15T08:22:42.369Z,67.09
2019-06-15T08:25:12.221Z,67.19
2019-06-15T08:27:41.677Z,67.45
2019-06-15T08:30:13.389Z,67.23
2019-06-15T08:32:42.830Z,66.38
2019-06-15T08:35:12.456Z,65.48
2019-06-15T08:37:41.901Z,66.04
2019-06-15T08:40:11.978Z,64.16
2019-06-15T08:42:41.429Z,64.51
2019-06-15T08:45:10.997Z,63.95
2019-06-15T08:47:40.453Z,63.52
2019-06-15T08:50:10.251Z,62.58
2019-06-15T08:52:39.719Z,63.35
2019-06-15T08:55:09.232Z,62.30
2019-06-15T08:57:40.547Z,61.87
2019-06-15T09:00:12.288Z,62.08
2019-06-15T09:02:41.796Z,61.08
2019-06-15T09:05:11.404Z,61.15
2019-06-15T09:07:40.843Z,61.43
2019-06-15T09:10:10.822Z,61.82
2019-06-15T09:12:40.283Z,61.72
2019-06-15T09:15:10.834Z,61.28
2019-06-15T09:17:40.277Z,60.74
2019-06-15T09:20:12.136Z,62.77
2019-06-15T09:22:41.577Z,62.56
2019-06-15T09:25:11.625Z,60.82
2019-06-15T09:27:41.094Z,62.04
2019-06-15T09:30:10.661Z,62.42
2019-06-15T09:32:40.128Z,61.61
2019-06-15T09:35:09.644Z,61.98
2019-06-15T09:37:39.099Z,63.59
2019-06-15T09:40:09.162Z,63.67
2019-06-15T09:42:38.676Z,63.41
2019-06-15T09:45:08.769Z,61.98
2019-06-15T09:47:38.242Z,61.70
2019-06-15T09:50:08.123Z,62.06
2019-06-15T09:52:37.561Z,62.73
2019-06-15T09:55:08.157Z,62.99
2019-06-15T09:57:37.593Z,63.62
2019-06-15T10:00:08.838Z,64.57
2019-06-15T10:02:39.134Z,63.24
2019-06-15T10:05:09.593Z,63.39
2019-06-15T10:07:39.061Z,61.56
2019-06-15T10:10:09.347Z,62.48
2019-06-15T10:12:38.803Z,60.03
2019-06-15T10:15:10.307Z,60.46
2019-06-15T10:17:39.769Z,58.52
2019-06-15T10:20:10.014Z,57.63
2019-06-15T10:22:39.460Z,57.39
2019-06-15T10:25:09.557Z,56.33
2019-06-15T10:27:38.997Z,57.91
2019-06-15T10:30:10.221Z,58.55
2019-06-15T10:32:39.649Z,57.53
2019-06-15T10:35:09.450Z,56.23
2019-06-15T10:37:38.894Z,57.36
2019-06-15T10:40:09.550Z,56.76
2019-06-15T10:42:39.015Z,57.12
2019-06-15T10:45:09.364Z,55.91
2019-06-15T10:47:38.875Z,55.88
2019-06-15T10:50:09.509Z,54.67
2019-06-15T10:52:39.029Z,55.21
2019-06-15T10:55:08.627Z,55.94
2019-06-15T10:57:38.158Z,54.33
2019-06-15T11:00:11.515Z,54.58
2019-06-15T11:02:41.168Z,55.22
2019-06-15T11:05:12.814Z,55.13
2019-06-15T11:07:42.313Z,56.18
2019-06-15T11:10:15.417Z,56.06
2019-06-15T11:12:46.760Z,56.26
2019-06-15T11:15:16.292Z,57.59
2019-06-15T11:17:45.830Z,57.93
2019-06-15T11:20:15.766Z,58.87
2019-06-15T11:22:45.249Z,59.34
2019-06-15T11:25:14.742Z,60.21
2019-06-15T11:27:44.261Z,61.14
2019-06-15T11:30:14.686Z,60.48
2019-06-15T11:32:44.399Z,60.91
2019-06-15T11:35:14.044Z,61.99
2019-06-15T11:37:43.635Z,62.03
2019-06-15T11:40:13.390Z,62.37
2019-06-15T11:42:42.966Z,62.08
2019-06-15T11:45:12.554Z,61.41
2019-06-15T11:47:42.086Z,62.03
2019-06-15T11:50:12.149Z,59.67
2019-06-15T11:52:41.728Z,59.82
2019-06-15T11:55:11.480Z,57.73
2019-06-15T11:57:41.113Z,58.37
2019-06-15T12:00:11.662Z,57.78
2019-06-15T12:02:41.236Z,57.58
2019-06-15T12:05:10.913Z,56.37
2019-06-15T12:07:40.590Z,55.98
2019-06-15T12:10:10.292Z,56.14
2019-06-15T12:12:39.783Z,52.17
2019-06-15T12:15:09.843Z,53.65
2019-06-15T12:17:39.347Z,53.73
2019-06-15T12:20:10.039Z,50.08
2019-06-15T12:22:39.588Z,51.85
2019-06-15T12:25:09.849Z,51.73
2019-06-15T12:27:39.291Z,50.35
2019-06-15T12:30:11.452Z,50.85
2019-06-15T12:32:40.922Z,51.26
2019-06-15T12:35:11.004Z,52.02
2019-06-15T12:37:40.445Z,51.95
2019-06-15T12:40:11.446Z,51.97
2019-06-15T12:42:40.887Z,50.81
2019-06-15T12:45:10.431Z,51.78
2019-06-15T12:47:39.874Z,51.79
2019-06-15T12:50:09.654Z,52.26
2019-06-15T12:52:39.111Z,52.27
2019-06-15T12:55:08.614Z,52.65
2019-06-15T12:57:38.064Z,51.66
2019-06-15T13:00:09.644Z,52.25
2019-06-15T13:02:39.066Z,50.15
2019-06-15T13:05:09.936Z,50.34
2019-06-15T13:07:39.387Z,50.53
2019-06-15T13:10:09.059Z,50.83
2019-06-15T13:12:38.513Z,49.35
2019-06-15T13:15:09.092Z,49.20
2019-06-15T13:17:38.566Z,48.75
2019-06-15T13:20:08.353Z,48.39
2019-06-15T13:22:37.799Z,48.29
2019-06-15T13:25:09.147Z,47.86
2019-06-15T13:27:38.618Z,46.66
2019-06-15T13:30:09.167Z,46.29
2019-06-15T13:32:38.678Z,47.25
2019-06-15T13:35:08.702Z,46.29
2019-06-15T13:37:41.993Z,46.45
2019-06-15T13:40:09.496Z,48.51
2019-06-15T13:42:38.981Z,47.80
2019-06-15T13:45:09.934Z,49.00
2019-06-15T13:47:39.465Z,49.34
2019-06-15T13:50:10.008Z,49.21
2019-06-15T13:52:39.957Z,48.63
2019-06-15T13:55:10.184Z,48.47
2019-06-15T13:57:39.752Z,49.67
2019-06-15T14:00:09.646Z,50.17
2019-06-15T14:02:39.216Z,49.83
2019-06-15T14:05:10.378Z,50.17
2019-06-15T14:07:39.847Z,49.77
2019-06-15T14:10:09.926Z,50.07
2019-06-15T14:12:39.413Z,48.49
2019-06-15T14:15:09.779Z,48.51
2019-06-15T14:17:40.186Z,46.96
2019-06-15T14:20:10.734Z,45.22
2019-06-15T14:22:40.242Z,42.09
2019-06-15T14:25:10.485Z,44.93
2019-06-15T14:27:39.957Z,43.33
2019-06-15T14:30:10.347Z,43.17
2019-06-15T14:32:39.849Z,44.60
2019-06-15T14:35:10.420Z,44.71
2019-06-15T14:37:39.880Z,44.83
2019-06-15T14:40:09.825Z,44.59
2019-06-15T14:42:39.278Z,45.56
2019-06-15T14:45:09.854Z,45.18
2019-06-15T14:47:39.302Z,44.18
2019-06-15T14:50:09.689Z,42.95
2019-06-15T14:52:39.131Z,41.70
2019-06-15T14:55:09.104Z,43.77
2019-06-15T14:57:38.553Z,43.79
2019-06-15T15:00:09.289Z,45.26
2019-06-15T15:02:38.764Z,43.88
2019-06-15T15:05:08.588Z,40.13
2019-06-15T15:07:38.044Z,39.09
2019-06-15T15:10:09.138Z,37.42
2019-06-15T15:12:41.644Z,38.60
2019-06-15T15:15:09.995Z,41.43
2019-06-15T15:17:39.443Z,42.40
2019-06-15T15:20:09.744Z,43.42
2019-06-15T15:22:39.351Z,43.38
2019-06-15T15:25:09.106Z,41.17
2019-06-15T15:27:38.571Z,39.69
2019-06-15T15:30:11.812Z,41.67
2019-06-15T15:32:41.282Z,41.17
2019-06-15T15:35:10.813Z,40.59
2019-06-15T15:37:40.440Z,38.83
2019-06-15T15:40:10.052Z,37.82
2019-06-15T15:42:39.502Z,35.26
2019-06-15T15:45:09.593Z,35.22
2019-06-15T15:47:39.057Z,34.69
2019-06-15T15:50:08.826Z,34.41
2019-06-15T15:52:38.272Z,36.94
2019-06-15T15:55:08.173Z,37.56
2019-06-15T15:57:37.680Z,40.58
2019-06-15T16:00:08.438Z,40.67
2019-06-15T16:02:47.512Z,41.18
2019-06-15T16:05:10.831Z,41.19
2019-06-15T16:07:40.287Z,38.93
2019-06-15T16:10:09.967Z,36.23
2019-06-15T16:12:39.437Z,35.09
2019-06-15T16:15:09.316Z,36.43
2019-06-15T16:17:38.773Z,35.21
2019-06-15T16:20:17.342Z,35.20
2019-06-15T16:22:48.026Z,35.76
2019-06-15T16:25:18.036Z,35.51
2019-06-15T16:27:47.500Z,37.31
2019-06-15T16:30:48.309Z,39.22
2019-06-15T16:33:04.163Z,41.24
2019-06-15T16:35:33.220Z,39.82
2019-06-15T16:38:02.688Z,37.18
2019-06-15T16:40:40.051Z,37.43
2019-06-15T16:43:09.631Z,36.05
2019-06-15T16:45:39.076Z,36.41
2019-06-15T16:48:08.610Z,36.64
2019-06-15T16:50:38.048Z,37.49
2019-06-15T16:53:07.487Z,35.92
2019-06-15T16:55:37.719Z,35.20
2019-06-15T16:58:07.857Z,35.96
2019-06-15T17:00:37.357Z,35.78
2019-06-15T17:03:19.945Z,34.46
2019-06-15T17:05:38.089Z,32.91
2019-06-15T17:08:07.613Z,33.52
2019-06-15T17:10:41.653Z,33.39
2019-06-15T17:13:11.333Z,33.42
2019-06-15T17:15:41.064Z,32.67
2019-06-15T17:18:11.180Z,32.19
2019-06-15T17:20:49.185Z,34.87
2019-06-15T17:23:18.958Z,36.13
2019-06-15T17:25:48.757Z,35.11
2019-06-15T17:28:18.235Z,35.55
2019-06-15T17:30:47.685Z,35.91
2019-06-15T17:33:17.156Z,35.72
2019-06-15T17:35:58.430Z,36.61
2019-06-15T17:38:17.771Z,36.30
2019-06-15T17:40:47.304Z,35.96
2019-06-15T17:43:16.754Z,36.00
2019-06-15T17:45:46.855Z,36.23
2019-06-15T17:48:17.322Z,35.77
2019-06-15T17:50:47.869Z,35.85
2019-06-15T17:53:17.495Z,36.08
2019-06-15T17:55:46.998Z,37.17
2019-06-15T17:58:17.143Z,37.94
2019-06-15T18:00:48.296Z,39.18
2019-06-15T18:03:17.817Z,40.20
2019-06-15T18:05:48.395Z,43.03
2019-06-15T18:08:18.038Z,43.34
2019-06-15T18:10:48.135Z,45.47
2019-06-15T18:13:17.677Z,45.80
2019-06-15T18:15:47.883Z,45.82
2019-06-15T18:18:17.703Z,46.66
2019-06-15T18:20:47.330Z,46.65
2019-06-15T18:23:17.633Z,46.73
2019-06-15T18:25:47.419Z,47.72
2019-06-15T18:28:17.940Z,46.60
2019-06-15T18:30:48.148Z,48.10
2019-06-15T18:33:19.179Z,48.35
2019-06-15T18:35:48.717Z,48.10
2019-06-15T18:38:18.200Z,47.66
2019-06-15T18:40:47.655Z,48.67
2019-06-15T18:43:17.143Z,48.58
2019-06-15T18:45:47.390Z,48.74
2019-06-15T18:48:17.108Z,49.93
2019-06-15T18:50:47.745Z,50.72
2019-06-15T18:53:17.178Z,51.45
2019-06-15T18:55:47.467Z,50.19
2019-06-15T18:58:17.564Z,49.76
2019-06-15T19:00:47.309Z,50.16
2019-06-15T19:03:17.098Z,51.38
2019-06-15T19:05:47.339Z,53.44
2019-06-15T19:08:17.452Z,53.85
2019-06-15T19:10:47.135Z,54.45
2019-06-15T19:13:16.587Z,52.60
2019-06-15T19:15:46.968Z,52.35
2019-06-15T19:18:17.679Z,51.75
2019-06-15T19:20:47.402Z,53.60
2019-06-15T19:23:16.882Z,54.12
2019-06-15T19:25:46.976Z,55.81
2019-06-15T19:28:16.857Z,56.66
2019-06-15T19:30:47.084Z,56.01
2019-06-15T19:33:16.794Z,56.77
2019-06-15T19:35:46.630Z,56.81
2019-06-15T19:38:16.498Z,56.65
2019-06-15T19:40:46.303Z,57.53
2019-06-15T19:43:16.392Z,57.64
2019-06-15T19:45:46.768Z,57.49
2019-06-15T19:48:17.098Z,58.20
2019-06-15T19:50:46.827Z,58.19
2019-06-15T19:53:17.219Z,58.40
2019-06-15T19:55:47.049Z,57.81
2019-06-15T19:58:16.753Z,57.64
2019-06-15T20:00:46.862Z,58.64
2019-06-15T20:03:16.831Z,59.32
2019-06-15T20:05:46.427Z,60.17
2019-06-15T20:08:17.688Z,60.94
2019-06-15T20:10:47.497Z,61.61
2019-06-15T20:13:16.988Z,61.55
2019-06-15T20:15:47.056Z,62.51
2019-06-15T20:18:17.747Z,62.45
2019-06-15T20:20:47.298Z,62.10
2019-06-15T20:23:16.738Z,62.30
2019-06-15T20:25:47.080Z,62.59
2019-06-15T20:28:16.743Z,62.88
2019-06-15T20:30:47.384Z,62.84
2019-06-15T20:33:16.957Z,63.36
2019-06-15T20:35:47.477Z,63.72
2019-06-15T20:38:17.082Z,63.54
2019-06-15T20:40:47.775Z,63.76
2019-06-15T20:43:17.488Z,63.75
2019-06-15T20:45:48.053Z,64.30
2019-06-15T20:48:17.515Z,64.43
2019-06-15T20:50:47.336Z,64.71
2019-06-15T20:53:17.213Z,65.11
2019-06-15T20:55:46.903Z,65.37
2019-06-15T20:58:17.231Z,65.90
2019-06-15T21:00:47.701Z,66.13
2019-06-15T21:03:17.349Z,66.26
2019-06-15T21:05:47.656Z,66.36
2019-06-15T21:08:17.433Z,66.62
2019-06-15T21:10:46.874Z,66.67
2019-06-15T21:13:17.178Z,66.79
2019-06-15T21:15:47.941Z,66.31
2019-06-15T21:18:17.428Z,66.40
2019-06-15T21:20:47.261Z,66.65
2019-06-15T21:23:17.193Z,67.08
2019-06-15T21:25:47.000Z,67.05
2019-06-15T21:28:17.067Z,66.68
2019-06-15T21:30:47.444Z,66.33
2019-06-15T21:33:16.987Z,66.47
2019-06-15T21:35:52.305Z,66.93
2019-06-15T21:38:17.635Z,67.46
2019-06-15T21:40:47.673Z,67.62
2019-06-15T21:43:17.254Z,67.48
2019-06-15T21:45:46.714Z,67.42
2019-06-15T21:48:16.175Z,67.79
2019-06-15T21:50:47.323Z,67.85
2019-06-15T21:53:16.958Z,67.83
2019-06-15T21:55:47.155Z,67.83
2019-06-15T21:58:16.995Z,68.27
2019-06-15T22:01:21.159Z,68.26
2019-06-15T22:03:50.655Z,68.06
2019-06-15T22:06:20.121Z,67.92
2019-06-15T22:08:49.580Z,68.04
2019-06-15T22:11:19.026Z,68.18
2019-06-15T22:13:48.465Z,68.52
2019-06-15T22:16:17.938Z,69.12
2019-06-15T22:18:47.696Z,69.52
2019-06-15T22:21:17.181Z,69.60
2019-06-15T22:23:47.303Z,69.68
2019-06-15T22:26:17.301Z,69.30
2019-06-15T22:28:47.188Z,69.42
2019-06-15T22:31:17.210Z,69.65
2019-06-15T22:33:47.394Z,69.80
2019-06-15T22:36:24.383Z,69.86
2019-06-15T22:38:48.077Z,70.32
2019-06-15T22:41:17.538Z,71.02
2019-06-15T22:43:46.986Z,72.42
2019-06-15T22:46:16.716Z,72.11
2019-06-15T22:48:47.033Z,71.81
2019-06-15T22:51:17.120Z,71.75
2019-06-15T22:53:47.322Z,72.09
2019-06-15T22:56:17.358Z,72.82
2019-06-15T22:58:46.938Z,73.21
2019-06-15T23:01:17.014Z,72.77
2019-06-15T23:03:46.855Z,72.37
2019-06-15T23:06:16.451Z,72.53
2019-06-15T23:08:47.092Z,71.85
2019-06-15T23:11:17.410Z,71.60
2019-06-15T23:13:47.150Z,72.31
2019-06-15T23:16:16.897Z,71.99
2019-06-15T23:18:46.886Z,72.50
2019-06-15T23:21:17.283Z,72.27
2019-06-15T23:23:47.295Z,72.12
2019-06-15T23:26:16.868Z,72.02
2019-06-15T23:28:46.800Z,71.82
2019-06-15T23:31:16.869Z,71.69
2019-06-15T23:33:46.835Z,71.57
2019-06-15T23:36:18.114Z,71.70
2019-06-15T23:38:47.570Z,71.10
2019-06-15T23:41:17.015Z,72.07
2019-06-15T23:43:46.550Z,72.37
2019-06-15T23:46:16.131Z,72.55
2019-06-15T23:48:47.026Z,72.53
2019-06-15T23:51:17.125Z,72.68
2019-06-15T23:53:46.745Z,72.39
2019-06-15T23:56:16.204Z,72.06
2019-06-15T23:58:46.351Z,72.34
